createdAt,value
2022-11-06T00:01:12.399Z,100771.78
2022-11-06T00:03:40.667Z,100729.84
2022-11-06T00:06:34.520Z,100761.69
2022-11-06T00:09:05.725Z,100724.69
2022-11-06T00:11:33.515Z,100735.25
2022-11-06T00:14:02.388Z,100739.78
2022-11-06T00:16:30.107Z,100737.06
2022-11-06T00:19:01.153Z,100752.38
2022-11-06T00:21:30.842Z,100750.97
2022-11-06T00:24:01.388Z,100724.03
2022-11-06T00:26:30.683Z,100739.72
2022-11-06T00:28:59.313Z,100741.63
2022-11-06T00:31:30.197Z,100711.63
2022-11-06T00:33:59.982Z,100758.44
2022-11-06T00:36:30.510Z,100748.09
2022-11-06T00:38:59.313Z,100679.66
2022-11-06T00:41:27.369Z,100748.41
2022-11-06T00:43:58.266Z,100751.94
2022-11-06T00:46:27.053Z,100685.78
2022-11-06T00:48:55.644Z,100747.84
2022-11-06T00:51:26.665Z,100735.13
2022-11-06T00:54:00.133Z,100725.94
2022-11-06T00:56:28.767Z,100683.78
2022-11-06T00:58:58.920Z,100739.41
2022-11-06T01:01:29.867Z,100729.69
2022-11-06T01:04:06.717Z,100726.25
2022-11-06T01:06:37.176Z,100738.81
2022-11-06T01:09:06.715Z,100738.31
2022-11-06T01:12:11.000Z,100744.25
2022-11-06T01:14:29.644Z,100705.91
2022-11-06T01:16:57.618Z,100724.53
2022-11-06T01:19:25.656Z,100685.31
2022-11-06T01:21:54.370Z,100728.88
2022-11-06T01:24:25.126Z,100738.09
2022-11-06T01:27:24.368Z,100712.66
2022-11-06T01:29:41.320Z,100673.41
2022-11-06T01:32:09.496Z,100698.53
2022-11-06T01:34:37.121Z,100727.06
2022-11-06T01:37:05.222Z,100692.69
2022-11-06T01:39:33.304Z,100736.00
2022-11-06T01:42:01.182Z,100707.03
2022-11-06T01:44:41.370Z,100723.47
2022-11-06T01:47:28.645Z,100724.56
2022-11-06T01:50:00.616Z,100713.72
2022-11-06T01:52:30.963Z,100721.41
2022-11-06T01:55:14.230Z,100695.47
2022-11-06T01:57:42.737Z,100635.59
2022-11-06T02:00:11.378Z,100717.16
2022-11-06T02:02:40.098Z,100653.50
2022-11-06T02:05:08.543Z,100705.91
2022-11-06T02:07:37.595Z,100692.31
2022-11-06T02:10:07.278Z,100715.84
2022-11-06T02:12:40.784Z,100707.13
2022-11-06T02:15:31.092Z,100715.91
2022-11-06T02:18:19.412Z,100646.94
2022-11-06T02:21:12.193Z,100703.06
2022-11-06T02:24:07.980Z,100705.28
2022-11-06T02:26:54.564Z,100711.25
2022-11-06T02:29:32.822Z,100691.50
2022-11-06T02:32:07.040Z,100695.34
2022-11-06T02:34:38.278Z,100707.50
2022-11-06T02:37:14.383Z,100700.44
2022-11-06T02:39:45.020Z,100661.44
2022-11-06T02:42:16.834Z,100677.66
2022-11-06T02:44:46.519Z,100673.59
2022-11-06T02:47:15.518Z,100615.00
2022-11-06T02:50:04.787Z,100677.00
2022-11-06T02:52:37.970Z,100675.34
2022-11-06T02:55:25.010Z,100672.72
2022-11-06T02:57:58.240Z,100621.38
2022-11-06T03:00:27.820Z,100637.50
2022-11-06T03:03:06.362Z,100634.34
2022-11-06T03:05:39.356Z,100616.50
2022-11-06T03:08:39.796Z,100669.84
2022-11-06T03:11:22.902Z,100674.94
2022-11-06T03:13:59.077Z,100666.75
2022-11-06T03:16:47.961Z,100631.09
2022-11-06T03:19:22.573Z,100609.66
2022-11-06T03:22:05.480Z,100662.31
2022-11-06T03:24:48.831Z,100655.59
2022-11-06T03:27:39.097Z,100645.75
2022-11-06T03:30:13.853Z,100658.22
2022-11-06T03:32:52.321Z,100644.94
2022-11-06T03:35:22.080Z,100646.66
2022-11-06T03:38:11.136Z,100660.44
2022-11-06T03:40:45.052Z,100647.28
2022-11-06T03:43:17.356Z,100639.63
2022-11-06T03:45:49.658Z,100596.88
2022-11-06T03:48:42.437Z,100615.03
2022-11-06T03:51:40.801Z,100641.03
2022-11-06T03:54:17.073Z,100565.38
2022-11-06T03:56:53.705Z,100633.97
2022-11-06T03:59:25.452Z,100586.94
2022-11-06T04:01:56.846Z,100623.50
2022-11-06T04:04:26.722Z,100580.53
2022-11-06T04:07:02.046Z,100640.53
2022-11-06T04:09:52.562Z,100560.00
2022-11-06T04:12:42.850Z,100599.59
2022-11-06T04:15:14.950Z,100626.34
2022-11-06T04:17:42.646Z,100578.63
2022-11-06T04:20:34.488Z,100631.31
2022-11-06T04:23:14.464Z,100600.81
2022-11-06T04:26:34.427Z,100554.94
2022-11-06T04:29:43.841Z,100622.38
2022-11-06T04:32:38.037Z,100602.69
2022-11-06T04:35:09.413Z,100625.72
2022-11-06T04:37:49.003Z,100603.09
2022-11-06T04:40:32.427Z,100623.81
2022-11-06T04:43:07.532Z,100620.25
2022-11-06T04:45:40.127Z,100632.84
2022-11-06T04:48:09.060Z,100577.19
2022-11-06T04:50:50.682Z,100599.84
2022-11-06T04:53:20.685Z,100622.63
2022-11-06T04:55:52.699Z,100619.66
2022-11-06T04:58:20.463Z,100625.25
2022-11-06T05:00:50.830Z,100627.97
2022-11-06T05:03:19.503Z,100613.09
2022-11-06T05:05:47.305Z,100599.31
2022-11-06T05:08:17.033Z,100627.41
2022-11-06T05:10:45.330Z,100602.88
2022-11-06T05:13:14.504Z,100618.78
2022-11-06T05:15:42.518Z,100563.19
2022-11-06T05:18:10.986Z,100614.34
2022-11-06T05:20:38.968Z,100574.16
2022-11-06T05:23:06.687Z,100630.66
2022-11-06T05:25:36.961Z,100576.78
2022-11-06T05:28:07.274Z,100580.25
2022-11-06T05:30:36.784Z,100581.97
2022-11-06T05:33:04.497Z,100605.53
2022-11-06T05:35:33.006Z,100576.72
2022-11-06T05:38:02.902Z,100606.31
2022-11-06T05:40:31.026Z,100615.75
2022-11-06T05:42:58.877Z,100610.50
2022-11-06T05:45:26.478Z,100618.13
2022-11-06T05:47:54.337Z,100612.13
2022-11-06T05:50:22.456Z,100610.81
2022-11-06T05:52:50.568Z,100546.81
2022-11-06T05:55:18.562Z,100590.84
2022-11-06T05:57:46.302Z,100567.53
2022-11-06T06:00:14.420Z,100607.50
2022-11-06T06:02:43.588Z,100603.94
2022-11-06T06:05:11.521Z,100590.97
2022-11-06T06:07:39.253Z,100610.22
2022-11-06T06:10:09.021Z,100603.38
2022-11-06T06:12:36.720Z,100602.31
2022-11-06T06:15:06.407Z,100617.31
2022-11-06T06:17:35.306Z,100610.22
2022-11-06T06:20:03.457Z,100613.22
2022-11-06T06:22:31.131Z,100569.50
2022-11-06T06:24:58.858Z,100602.94
2022-11-06T06:27:27.769Z,100593.69
2022-11-06T06:29:55.432Z,100588.94
2022-11-06T06:32:23.390Z,100580.91
2022-11-06T06:34:51.145Z,100584.69
2022-11-06T06:37:20.230Z,100615.44
2022-11-06T06:39:48.189Z,100624.13
2022-11-06T06:42:15.898Z,100627.41
2022-11-06T06:44:43.499Z,100623.03
2022-11-06T06:47:11.167Z,100621.94
2022-11-06T06:49:38.928Z,100627.69
2022-11-06T06:52:06.702Z,100580.47
2022-11-06T06:54:34.478Z,100615.91
2022-11-06T06:57:02.071Z,100616.13
2022-11-06T06:59:30.039Z,100623.13
2022-11-06T07:01:58.157Z,100611.34
2022-11-06T07:04:26.154Z,100629.09
2022-11-06T07:06:55.084Z,100623.88
2022-11-06T07:09:24.290Z,100632.31
2022-11-06T07:11:52.063Z,100556.91
2022-11-06T07:14:19.699Z,100634.19
2022-11-06T07:16:51.141Z,100637.75
2022-11-06T07:19:21.875Z,100643.41
2022-11-06T07:21:53.823Z,100591.81
2022-11-06T07:24:21.594Z,100633.91
2022-11-06T07:26:50.074Z,100640.59
2022-11-06T07:29:17.792Z,100651.31
2022-11-06T07:31:45.630Z,100670.53
2022-11-06T07:34:14.121Z,100656.16
2022-11-06T07:36:42.079Z,100624.81
2022-11-06T07:39:09.886Z,100653.72
2022-11-06T07:41:38.012Z,100649.97
2022-11-06T07:44:06.229Z,100658.59
2022-11-06T07:46:34.196Z,100602.22
2022-11-06T07:49:02.043Z,100638.75
2022-11-06T07:51:29.897Z,100678.41
2022-11-06T07:53:57.618Z,100685.69
2022-11-06T07:56:25.643Z,100640.78
2022-11-06T07:58:53.446Z,100675.81
2022-11-06T08:01:21.282Z,100641.56
2022-11-06T08:03:49.147Z,100676.31
2022-11-06T08:06:17.655Z,100699.91
2022-11-06T08:08:45.386Z,100701.25
2022-11-06T08:11:16.235Z,100684.13
2022-11-06T08:13:44.299Z,100638.69
2022-11-06T08:16:15.172Z,100624.59
2022-11-06T08:18:43.142Z,100660.88
2022-11-06T08:21:10.862Z,100586.59
2022-11-06T08:23:38.619Z,100642.59
2022-11-06T08:26:07.473Z,100670.06
2022-11-06T08:28:35.789Z,100689.41
2022-11-06T08:31:05.941Z,100690.75
2022-11-06T08:33:37.211Z,100683.06
2022-11-06T08:36:07.165Z,100674.97
2022-11-06T08:38:36.927Z,100448.25
2022-11-06T08:41:09.837Z,100664.34
2022-11-06T08:43:38.274Z,100689.47
2022-11-06T08:46:07.432Z,100668.94
2022-11-06T08:48:35.401Z,100659.41
2022-11-06T08:51:06.228Z,100691.19
2022-11-06T08:53:34.426Z,100696.88
2022-11-06T08:56:05.807Z,100693.34
2022-11-06T08:58:34.669Z,100689.09
2022-11-06T09:01:02.621Z,100681.47
2022-11-06T09:03:30.328Z,100651.50
2022-11-06T09:05:58.183Z,100653.16
2022-11-06T09:08:26.144Z,100690.31
2022-11-06T09:10:58.470Z,100682.63
2022-11-06T09:13:27.488Z,100645.78
2022-11-06T09:15:55.235Z,100607.22
2022-11-06T09:18:22.885Z,100617.34
2022-11-06T09:20:56.292Z,100686.53
2022-11-06T09:23:25.317Z,100660.59
2022-11-06T09:25:52.992Z,100641.88
2022-11-06T09:28:21.098Z,100658.34
2022-11-06T09:30:48.938Z,100683.69
2022-11-06T09:33:17.733Z,100658.81
2022-11-06T09:35:45.761Z,100681.47
2022-11-06T09:38:15.780Z,100679.84
2022-11-06T09:41:00.370Z,100683.38
2022-11-06T09:44:06.668Z,100688.03
2022-11-06T09:46:47.528Z,100689.75
2022-11-06T09:49:30.759Z,100688.16
2022-11-06T09:52:02.354Z,100688.44
2022-11-06T09:54:43.060Z,100659.16
2022-11-06T09:57:23.738Z,100682.69
2022-11-06T09:59:51.977Z,100671.22
2022-11-06T10:02:32.147Z,100633.97
2022-11-06T10:05:10.912Z,100677.00
2022-11-06T10:07:41.524Z,100678.34
2022-11-06T10:10:16.831Z,100634.25
2022-11-06T10:13:01.950Z,100671.22
2022-11-06T10:15:48.033Z,100681.06
2022-11-06T10:19:01.136Z,100657.75
2022-11-06T10:21:41.066Z,100678.84
2022-11-06T10:24:42.804Z,100625.69
2022-11-06T10:27:16.037Z,100663.16
2022-11-06T10:30:13.265Z,100668.09
2022-11-06T10:33:22.622Z,100667.28
2022-11-06T10:35:55.467Z,100658.91
2022-11-06T10:38:33.797Z,100654.56
2022-11-06T10:41:02.367Z,100652.34
2022-11-06T10:43:34.941Z,100648.56
2022-11-06T10:46:08.828Z,100568.91
2022-11-06T10:48:47.028Z,100596.97
2022-11-06T10:51:44.659Z,100626.03
2022-11-06T10:54:43.018Z,100635.13
2022-11-06T10:57:23.989Z,100637.56
2022-11-06T10:59:52.647Z,100606.47
2022-11-06T11:02:35.160Z,100633.31
2022-11-06T11:05:10.703Z,100630.50
2022-11-06T11:07:38.744Z,100559.03
2022-11-06T11:10:32.602Z,100582.53
2022-11-06T11:13:08.058Z,100611.06
2022-11-06T11:15:46.055Z,100603.34
2022-11-06T11:18:14.211Z,100530.63
2022-11-06T11:20:46.020Z,100604.97
2022-11-06T11:23:20.314Z,100603.53
2022-11-06T11:25:57.022Z,100514.13
2022-11-06T11:28:30.151Z,100591.22
2022-11-06T11:31:03.870Z,100591.22
2022-11-06T11:33:32.777Z,100586.53
2022-11-06T11:36:02.719Z,100584.31
2022-11-06T11:38:30.857Z,100562.84
2022-11-06T11:41:12.480Z,100566.63
2022-11-06T11:43:42.190Z,100572.75
2022-11-06T11:46:09.848Z,100568.09
2022-11-06T11:48:49.969Z,100568.63
2022-11-06T11:51:40.807Z,100562.03
2022-11-06T11:54:11.387Z,100554.00
2022-11-06T11:57:04.820Z,100525.63
2022-11-06T11:59:37.096Z,100544.38
2022-11-06T12:02:17.150Z,100535.28
2022-11-06T12:04:52.978Z,100542.28
2022-11-06T12:07:25.461Z,100533.25
2022-11-06T12:09:53.326Z,100529.41
2022-11-06T12:12:32.378Z,100465.41
2022-11-06T12:15:11.490Z,100521.13
2022-11-06T12:17:41.430Z,100475.66
2022-11-06T12:20:20.436Z,100512.53
2022-11-06T12:22:53.258Z,100482.50
2022-11-06T12:25:36.249Z,100479.59
2022-11-06T12:28:12.810Z,100435.53
2022-11-06T12:30:44.327Z,100482.88
2022-11-06T12:33:19.781Z,100478.53
2022-11-06T12:36:08.348Z,100486.47
2022-11-06T12:38:48.939Z,100490.81
2022-11-06T12:41:28.211Z,100480.41
2022-11-06T12:43:57.069Z,100451.13
2022-11-06T12:46:33.535Z,100482.63
2022-11-06T12:49:01.251Z,100469.75
2022-11-06T12:51:45.502Z,100461.56
2022-11-06T12:54:16.066Z,100468.03
2022-11-06T12:56:46.912Z,100467.56
2022-11-06T12:59:42.344Z,100457.91
2022-11-06T13:02:41.469Z,100458.72
2022-11-06T13:05:15.317Z,100453.41
2022-11-06T13:08:17.276Z,100455.06
2022-11-06T13:11:12.580Z,100443.00
2022-11-06T13:13:58.793Z,100448.78
2022-11-06T13:16:39.761Z,100438.41
2022-11-06T13:19:56.279Z,100430.69
2022-11-06T13:22:38.911Z,100393.88
2022-11-06T13:25:22.807Z,100440.38
2022-11-06T13:27:56.540Z,100434.44
2022-11-06T13:30:24.920Z,100439.09
2022-11-06T13:33:10.865Z,100433.63
2022-11-06T13:35:41.851Z,100428.47
2022-11-06T13:38:17.354Z,100408.97
2022-11-06T13:40:48.566Z,100408.47
2022-11-06T13:43:22.564Z,100424.31
2022-11-06T13:46:31.241Z,100413.38
2022-11-06T13:49:04.847Z,100416.09
2022-11-06T13:51:46.993Z,100382.88
2022-11-06T13:54:17.704Z,100405.97
2022-11-06T13:57:13.642Z,100407.09
2022-11-06T13:59:58.469Z,100407.09
2022-11-06T14:02:47.783Z,100407.09
2022-11-06T14:05:24.246Z,100412.06
2022-11-06T14:07:53.962Z,100332.34
2022-11-06T14:10:34.541Z,100415.91
2022-11-06T14:13:07.328Z,100412.56
2022-11-06T14:15:42.127Z,100394.44
2022-11-06T14:18:21.377Z,100427.97
2022-11-06T14:20:49.105Z,100417.84
2022-11-06T14:23:28.925Z,100423.63
2022-11-06T14:26:12.320Z,100405.81
2022-11-06T14:28:44.125Z,100418.41
2022-11-06T14:31:54.722Z,100396.91
2022-11-06T14:34:33.825Z,100426.97
2022-11-06T14:37:20.158Z,100416.06
2022-11-06T14:39:54.186Z,100430.22
2022-11-06T14:42:27.316Z,100425.22
2022-11-06T14:45:00.976Z,100387.13
2022-11-06T14:47:39.939Z,100424.09
2022-11-06T14:50:10.068Z,100436.16
2022-11-06T14:52:55.925Z,100427.97
2022-11-06T14:55:33.039Z,100433.44
2022-11-06T14:58:21.326Z,100430.22
2022-11-06T15:01:10.316Z,100437.59
2022-11-06T15:03:41.150Z,100440.66
2022-11-06T15:06:35.041Z,100428.84
2022-11-06T15:09:35.832Z,100440.16
2022-11-06T15:12:08.260Z,100420.28
2022-11-06T15:14:35.993Z,100433.88
2022-11-06T15:17:17.496Z,100420.38
2022-11-06T15:19:59.761Z,100454.91
2022-11-06T15:22:44.779Z,100398.72
2022-11-06T15:25:27.851Z,100453.19
2022-11-06T15:28:04.375Z,100449.97
2022-11-06T15:30:41.379Z,100449.44
2022-11-06T15:33:13.147Z,100453.81
2022-11-06T15:35:41.395Z,100435.94
2022-11-06T15:38:22.290Z,100464.81
2022-11-06T15:40:57.161Z,100457.22
2022-11-06T15:43:33.383Z,100461.88
2022-11-06T15:46:19.799Z,100461.41
2022-11-06T15:48:47.715Z,100458.34
2022-11-06T15:51:29.806Z,100455.75
2022-11-06T15:53:57.499Z,100454.69
2022-11-06T15:56:35.179Z,100453.03
2022-11-06T15:59:09.244Z,100462.88
2022-11-06T16:01:37.374Z,100477.16
2022-11-06T16:04:16.176Z,100450.72
2022-11-06T16:06:45.167Z,100421.75
2022-11-06T16:09:19.552Z,100484.25
2022-11-06T16:11:50.139Z,100432.69
2022-11-06T16:14:18.733Z,100432.53
2022-11-06T16:16:56.006Z,100479.81
2022-11-06T16:19:31.473Z,100442.66
2022-11-06T16:22:13.417Z,100504.00
2022-11-06T16:24:49.528Z,100456.97
2022-11-06T16:27:17.631Z,100497.16
2022-11-06T16:29:52.205Z,100499.97
2022-11-06T16:32:23.783Z,100471.50
2022-11-06T16:34:52.885Z,100483.44
2022-11-06T16:37:21.762Z,100510.41
2022-11-06T16:39:53.118Z,100510.41
2022-11-06T16:42:36.218Z,100508.78
2022-11-06T16:45:24.236Z,100524.88
2022-11-06T16:48:07.192Z,100522.16
2022-11-06T16:50:48.169Z,100472.06
2022-11-06T16:53:28.040Z,100527.72
2022-11-06T16:56:06.521Z,100468.72
2022-11-06T16:58:56.805Z,100523.97
2022-11-06T17:01:26.980Z,100524.81
2022-11-06T17:04:00.843Z,100539.97
2022-11-06T17:06:33.097Z,100494.09
2022-11-06T17:09:09.088Z,100539.78
2022-11-06T17:11:38.921Z,100542.19
2022-11-06T17:14:19.225Z,100532.00
2022-11-06T17:16:50.070Z,100539.56
2022-11-06T17:19:21.574Z,100535.75
2022-11-06T17:21:50.305Z,100546.22
2022-11-06T17:24:36.062Z,100531.28
2022-11-06T17:27:05.604Z,100556.47
2022-11-06T17:29:36.601Z,100565.50
2022-11-06T17:32:05.280Z,100565.97
2022-11-06T17:34:32.972Z,100564.97
2022-11-06T17:37:00.798Z,100570.81
2022-11-06T17:39:28.450Z,100537.38
2022-11-06T17:41:57.307Z,100514.97
2022-11-06T17:44:26.087Z,100515.16
2022-11-06T17:46:53.773Z,100588.34
2022-11-06T17:49:21.655Z,100573.78
2022-11-06T17:51:52.153Z,100570.25
2022-11-06T17:54:22.327Z,100561.97
2022-11-06T17:56:51.516Z,100596.22
2022-11-06T17:59:20.600Z,100604.34
2022-11-06T18:01:50.607Z,100558.25
2022-11-06T18:04:23.243Z,100632.88
2022-11-06T18:06:53.127Z,100621.53
2022-11-06T18:09:22.441Z,100642.41
2022-11-06T18:11:51.434Z,100643.50
2022-11-06T18:14:19.878Z,100646.22
2022-11-06T18:16:48.855Z,100649.28
2022-11-06T18:19:19.317Z,100647.34
2022-11-06T18:21:48.033Z,100650.88
2022-11-06T18:24:15.824Z,100602.84
2022-11-06T18:26:43.565Z,100678.22
2022-11-06T18:29:12.839Z,100650.13
2022-11-06T18:31:41.527Z,100660.84
2022-11-06T18:34:20.323Z,100665.97
2022-11-06T18:36:50.666Z,100663.25
2022-11-06T18:39:18.605Z,100678.75
2022-11-06T18:41:46.513Z,100693.09
2022-11-06T18:44:15.832Z,100690.38
2022-11-06T18:46:44.922Z,100690.38
2022-11-06T18:49:12.819Z,100661.63
2022-11-06T18:51:40.762Z,100646.97
2022-11-06T18:54:11.171Z,100702.09
2022-11-06T18:56:39.151Z,100661.44
2022-11-06T18:59:08.951Z,100714.38
2022-11-06T19:01:36.924Z,100713.84
2022-11-06T19:04:05.629Z,100706.09
2022-11-06T19:06:33.431Z,100723.16
2022-11-06T19:09:02.190Z,100678.84
2022-11-06T19:11:30.287Z,100683.19
2022-11-06T19:13:57.974Z,100715.59
2022-11-06T19:16:25.644Z,100720.06
2022-11-06T19:21:30.950Z,100729.25
2022-11-06T19:24:03.941Z,100735.34
2022-11-06T19:26:33.187Z,100742.63
2022-11-06T19:29:01.801Z,100745.03
2022-11-06T19:31:30.568Z,100711.31
2022-11-06T19:34:00.031Z,100746.06
2022-11-06T19:36:29.119Z,100762.88
2022-11-06T19:38:58.724Z,100742.41
2022-11-06T19:41:28.745Z,100767.34
2022-11-06T19:43:56.949Z,100770.88
2022-11-06T19:46:33.932Z,100777.16
2022-11-06T19:49:08.277Z,100776.94
2022-11-06T19:51:43.081Z,100749.88
2022-11-06T19:54:13.687Z,100777.44
2022-11-06T19:57:28.577Z,100788.34
2022-11-06T19:59:29.554Z,100792.22
2022-11-06T20:01:57.812Z,100787.84
2022-11-06T20:04:25.580Z,100765.47
2022-11-06T20:06:53.309Z,100793.81
2022-11-06T20:09:21.087Z,100748.25
2022-11-06T20:11:49.373Z,100806.69
2022-11-06T20:14:21.979Z,100806.28
2022-11-06T20:16:51.032Z,100810.66
2022-11-06T20:19:18.798Z,100801.09
2022-11-06T20:21:47.431Z,100825.44
2022-11-06T20:24:15.530Z,100801.91
2022-11-06T20:26:43.174Z,100826.47
2022-11-06T20:29:10.924Z,100833.03
2022-11-06T20:31:38.506Z,100836.28
2022-11-06T20:34:06.171Z,100797.94
2022-11-06T20:36:36.267Z,100839.41
2022-11-06T20:39:04.416Z,100847.53
2022-11-06T20:41:32.172Z,100774.94
2022-11-06T20:43:59.893Z,100848.09
2022-11-06T20:46:27.702Z,100835.94
2022-11-06T20:48:55.466Z,100819.13
2022-11-06T20:51:27.382Z,100853.56
2022-11-06T20:53:55.578Z,100813.66
2022-11-06T20:56:27.277Z,100871.31
2022-11-06T20:58:56.246Z,100869.38
2022-11-06T21:01:27.299Z,100874.63
2022-11-06T21:03:57.020Z,100877.66
2022-11-06T21:06:27.555Z,100833.66
2022-11-06T21:08:55.802Z,100869.84
2022-11-06T21:11:26.467Z,100882.03
2022-11-06T21:13:55.337Z,100882.31
2022-11-06T21:16:25.821Z,100836.91
2022-11-06T21:18:54.250Z,100882.31
2022-11-06T21:21:24.956Z,100882.31
2022-11-06T21:23:53.921Z,100880.47
2022-11-06T21:26:25.088Z,100875.44
2022-11-06T21:28:52.976Z,100833.22
2022-11-06T21:31:26.163Z,100892.84
2022-11-06T21:33:56.597Z,100883.78
2022-11-06T21:36:37.891Z,100831.34
2022-11-06T21:39:08.834Z,100896.69
2022-11-06T21:41:37.162Z,100891.09
2022-11-06T21:44:06.811Z,100909.31
2022-11-06T21:46:35.036Z,100904.94
2022-11-06T21:49:02.786Z,100908.81
2022-11-06T21:51:32.925Z,100908.28
2022-11-06T21:54:19.239Z,100850.69
2022-11-06T21:56:48.958Z,100908.81
2022-11-06T21:59:19.962Z,100911.53
2022-11-06T22:01:47.844Z,100908.97
2022-11-06T22:04:16.006Z,100894.38
2022-11-06T22:06:44.846Z,100912.00
2022-11-06T22:09:14.023Z,100927.72
2022-11-06T22:11:43.855Z,100925.56
2022-11-06T22:14:16.986Z,100933.69
2022-11-06T22:16:47.076Z,100927.50
2022-11-06T22:19:17.789Z,100940.78
2022-11-06T22:21:45.870Z,100934.50
2022-11-06T22:24:14.646Z,100923.81
2022-11-06T22:26:42.654Z,100907.59
2022-11-06T22:29:14.500Z,100929.66
2022-11-06T22:31:42.252Z,100871.81
2022-11-06T22:34:11.846Z,100938.13
2022-11-06T22:36:41.982Z,100938.97
2022-11-06T22:39:12.003Z,100917.63
2022-11-06T22:41:40.116Z,100898.16
2022-11-06T22:44:08.036Z,100885.97
2022-11-06T22:46:35.921Z,100890.84
2022-11-06T22:49:04.854Z,100909.53
2022-11-06T22:51:33.627Z,100914.06
2022-11-06T22:54:03.821Z,100923.25
2022-11-06T22:56:33.019Z,100940.34
2022-11-06T22:59:03.276Z,100892.44
2022-11-06T23:01:34.955Z,100874.13
2022-11-06T23:04:09.448Z,100938.81
2022-11-06T23:06:37.471Z,100915.34
2022-11-06T23:09:05.219Z,100939.91
2022-11-06T23:11:33.233Z,100874.13
2022-11-06T23:14:07.434Z,100902.88
2022-11-06T23:16:55.471Z,100899.25
2022-11-06T23:19:24.098Z,100831.94
2022-11-06T23:21:52.827Z,100914.75
2022-11-06T23:24:20.457Z,100935.66
2022-11-06T23:26:48.289Z,100903.97
2022-11-06T23:29:15.938Z,100905.84
2022-11-06T23:31:43.637Z,100939.25
2022-11-06T23:34:11.663Z,100940.88
2022-11-06T23:36:39.492Z,100916.53
2022-11-06T23:39:07.260Z,100926.88
2022-11-06T23:41:48.739Z,100928.50
2022-11-06T23:44:34.920Z,100885.16
2022-11-06T23:47:03.010Z,100888.16
2022-11-06T23:49:30.931Z,100945.34
2022-11-06T23:51:58.683Z,100915.50
2022-11-06T23:54:26.520Z,100943.41
2022-11-06T23:56:54.219Z,100894.38
2022-11-06T23:59:21.973Z,100929.00
